createdAt,value
2018-08-11T00:00:20.803Z,98.50
2018-08-11T00:02:48.763Z,97.80
2018-08-11T00:05:17.300Z,98.20
2018-08-11T00:07:45.209Z,98.70
2018-08-11T00:10:12.865Z,99.40
2018-08-11T00:12:40.422Z,99.70
2018-08-11T00:15:11.302Z,99.90
2018-08-11T00:17:39.837Z,99.90
2018-08-11T00:20:10.334Z,99.90
2018-08-11T00:22:38.475Z,99.90
2018-08-11T00:25:06.676Z,99.90
2018-08-11T00:27:34.571Z,99.90
2018-08-11T00:30:02.675Z,99.70
2018-08-11T00:32:30.201Z,99.80
2018-08-11T00:34:58.862Z,99.30
2018-08-11T00:37:26.454Z,99.90
2018-08-11T00:39:54.515Z,99.30
2018-08-11T00:42:22.137Z,99.50
2018-08-11T00:44:49.747Z,99.90
2018-08-11T00:47:17.271Z,99.90
2018-08-11T00:49:45.335Z,99.90
2018-08-11T00:52:13.526Z,99.90
2018-08-11T00:54:41.502Z,99.90
2018-08-11T00:57:09.083Z,99.90
2018-08-11T00:59:37.205Z,99.90
2018-08-11T01:02:04.906Z,99.90
2018-08-11T01:04:33.000Z,99.90
2018-08-11T01:07:00.603Z,99.90
2018-08-11T01:09:28.129Z,99.90
2018-08-11T01:11:56.198Z,99.90
2018-08-11T01:14:24.532Z,99.90
2018-08-11T01:16:52.614Z,99.90
2018-08-11T01:19:20.148Z,99.90
2018-08-11T01:21:47.694Z,99.90
2018-08-11T01:24:15.219Z,99.90
2018-08-11T01:26:43.294Z,99.90
2018-08-11T01:29:10.843Z,99.90
2018-08-11T01:31:38.367Z,99.90
2018-08-11T01:34:05.915Z,99.80
2018-08-11T01:36:34.047Z,99.80
2018-08-11T01:39:01.580Z,99.60
2018-08-11T01:41:29.430Z,99.70
2018-08-11T01:43:57.564Z,99.90
2018-08-11T01:46:25.603Z,99.90
2018-08-11T01:48:53.177Z,99.90
2018-08-11T01:51:21.317Z,99.90
2018-08-11T01:53:49.469Z,99.90
2018-08-11T01:56:17.357Z,99.90
2018-08-11T01:58:44.855Z,99.90
2018-08-11T02:01:12.411Z,99.60
2018-08-11T02:03:39.953Z,99.80
2018-08-11T02:06:07.503Z,99.90
2018-08-11T02:08:35.083Z,99.90
2018-08-11T02:11:02.639Z,99.90
2018-08-11T02:13:30.167Z,99.90
2018-08-11T02:15:58.222Z,99.90
2018-08-11T02:18:26.555Z,99.90
2018-08-11T02:20:54.126Z,99.90
2018-08-11T02:23:21.662Z,99.90
2018-08-11T02:25:49.199Z,99.90
2018-08-11T02:28:17.291Z,99.90
2018-08-11T02:30:44.854Z,99.90
2018-08-11T02:33:12.511Z,99.90
2018-08-11T02:35:40.479Z,99.90
2018-08-11T02:38:08.687Z,99.90
2018-08-11T02:40:36.297Z,99.90
2018-08-11T02:43:04.534Z,99.90
2018-08-11T02:45:32.443Z,99.90
2018-08-11T02:47:59.966Z,99.90
2018-08-11T02:50:27.521Z,99.90
2018-08-11T02:52:55.644Z,99.90
2018-08-11T02:55:23.478Z,99.90
2018-08-11T02:57:50.985Z,99.90
2018-08-11T03:00:18.571Z,99.90
2018-08-11T03:02:46.109Z,99.90
2018-08-11T03:05:13.707Z,99.90
2018-08-11T03:07:41.296Z,99.90
2018-08-11T03:10:10.598Z,99.90
2018-08-11T03:12:38.518Z,99.90
2018-08-11T03:15:08.118Z,99.90
2018-08-11T03:17:36.151Z,99.90
2018-08-11T03:20:06.169Z,99.90
2018-08-11T03:22:33.720Z,99.90
2018-08-11T03:25:01.322Z,99.90
2018-08-11T03:27:29.375Z,99.90
2018-08-11T03:29:56.910Z,99.90
2018-08-11T03:32:24.942Z,99.90
2018-08-11T03:34:53.310Z,99.90
2018-08-11T03:37:20.910Z,99.90
2018-08-11T03:39:48.401Z,99.90
2018-08-11T03:42:17.531Z,99.90
2018-08-11T03:44:45.446Z,99.90
2018-08-11T03:47:13.443Z,99.90
2018-08-11T03:49:41.750Z,99.90
2018-08-11T03:52:10.142Z,99.90
2018-08-11T03:54:37.691Z,99.90
2018-08-11T03:57:05.299Z,99.90
2018-08-11T03:59:32.846Z,99.90
2018-08-11T04:02:00.665Z,99.90
2018-08-11T04:04:28.253Z,99.90
2018-08-11T04:06:55.779Z,99.90
2018-08-11T04:09:23.283Z,99.90
2018-08-11T04:11:50.771Z,99.90
2018-08-11T04:14:19.078Z,99.90
2018-08-11T04:16:47.017Z,99.90
2018-08-11T04:19:14.540Z,99.90
2018-08-11T04:21:42.030Z,99.90
2018-08-11T04:24:10.064Z,99.90
2018-08-11T04:26:37.840Z,99.90
2018-08-11T04:29:05.467Z,99.90
2018-08-11T04:31:34.031Z,99.90
2018-08-11T04:34:01.558Z,99.90
2018-08-11T04:36:29.070Z,99.90
2018-08-11T04:38:56.933Z,99.50
2018-08-11T04:41:24.462Z,99.90
2018-08-11T04:43:51.974Z,99.90
2018-08-11T04:46:19.506Z,99.90
2018-08-11T04:48:47.019Z,99.90
2018-08-11T04:51:14.878Z,99.90
2018-08-11T04:53:42.778Z,99.90
2018-08-11T04:56:10.303Z,99.90
2018-08-11T04:58:38.382Z,99.90
2018-08-11T05:01:05.915Z,99.90
2018-08-11T05:03:33.755Z,99.90
2018-08-11T05:06:01.422Z,99.90
2018-08-11T05:08:29.441Z,99.90
2018-08-11T05:10:56.990Z,99.90
2018-08-11T05:13:24.529Z,99.90
2018-08-11T05:15:53.054Z,99.90
2018-08-11T05:18:21.734Z,99.90
2018-08-11T05:20:49.241Z,99.90
2018-08-11T05:23:16.763Z,99.90
2018-08-11T05:25:45.270Z,99.90
2018-08-11T05:28:12.763Z,99.90
2018-08-11T05:30:40.288Z,99.90
2018-08-11T05:33:07.828Z,99.90
2018-08-11T05:35:35.451Z,99.90
2018-08-11T05:38:03.451Z,99.90
2018-08-11T05:40:30.974Z,99.70
2018-08-11T05:42:58.912Z,99.50
2018-08-11T05:45:27.278Z,99.30
2018-08-11T05:47:55.287Z,98.90
2018-08-11T05:50:22.834Z,98.50
2018-08-11T05:52:51.563Z,98.60
2018-08-11T05:55:19.079Z,98.70
2018-08-11T05:57:46.670Z,98.50
2018-08-11T06:00:14.266Z,98.10
2018-08-11T06:02:41.814Z,97.90
2018-08-11T06:05:09.488Z,97.00
2018-08-11T06:07:37.042Z,96.70
2018-08-11T06:10:05.851Z,96.80
2018-08-11T06:12:33.924Z,96.30
2018-08-11T06:15:03.263Z,94.80
2018-08-11T06:17:31.683Z,94.10
2018-08-11T06:19:59.868Z,94.30
2018-08-11T06:22:27.384Z,93.40
2018-08-11T06:24:54.885Z,93.70
2018-08-11T06:27:22.430Z,93.20
2018-08-11T06:29:49.951Z,92.90
2018-08-11T06:32:17.672Z,92.50
2018-08-11T06:34:45.873Z,91.50
2018-08-11T06:37:13.375Z,90.60
2018-08-11T06:39:40.932Z,88.10
2018-08-11T06:42:08.471Z,88.60
2018-08-11T06:44:36.689Z,86.90
2018-08-11T06:47:04.272Z,89.30
2018-08-11T06:49:31.854Z,86.40
2018-08-11T06:51:59.979Z,88.10
2018-08-11T06:54:27.948Z,83.60
2018-08-11T06:56:55.483Z,86.70
2018-08-11T06:59:23.052Z,87.00
2018-08-11T07:01:50.773Z,84.50
2018-08-11T07:04:18.350Z,84.80
2018-08-11T07:06:45.986Z,85.50
2018-08-11T07:09:13.518Z,84.30
2018-08-11T07:11:41.035Z,83.50
2018-08-11T07:14:09.761Z,83.80
2018-08-11T07:16:38.142Z,83.30
2018-08-11T07:19:06.167Z,81.40
2018-08-11T07:21:33.691Z,82.30
2018-08-11T07:24:01.220Z,82.50
2018-08-11T07:26:28.751Z,82.10
2018-08-11T07:28:56.291Z,81.90
2018-08-11T07:31:25.158Z,81.70
2018-08-11T07:33:52.691Z,81.60
2018-08-11T07:36:20.463Z,81.80
2018-08-11T07:38:47.975Z,82.10
2018-08-11T07:41:15.523Z,79.80
2018-08-11T07:43:43.665Z,78.00
2018-08-11T07:46:11.262Z,76.30
2018-08-11T07:48:38.796Z,80.60
2018-08-11T07:51:07.044Z,80.30
2018-08-11T07:53:34.907Z,79.30
2018-08-11T07:56:02.522Z,78.60
2018-08-11T07:58:30.003Z,78.70
2018-08-11T08:00:57.515Z,76.80
2018-08-11T08:03:25.645Z,78.00
2018-08-11T08:05:53.155Z,76.90
2018-08-11T08:08:21.045Z,78.40
2018-08-11T08:10:48.583Z,76.80
2018-08-11T08:13:16.781Z,76.70
2018-08-11T08:15:44.667Z,74.50
2018-08-11T08:18:13.180Z,76.20
2018-08-11T08:20:40.716Z,75.80
2018-08-11T08:23:08.235Z,74.60
2018-08-11T08:25:35.769Z,74.30
2018-08-11T08:28:03.828Z,73.90
2018-08-11T08:30:32.028Z,75.70
2018-08-11T08:32:59.588Z,74.30
2018-08-11T08:35:27.090Z,70.60
2018-08-11T08:37:54.639Z,70.10
2018-08-11T08:40:22.724Z,72.90
2018-08-11T08:42:50.231Z,73.30
2018-08-11T08:45:17.806Z,74.00
2018-08-11T08:47:45.335Z,68.90
2018-08-11T08:50:12.916Z,67.90
2018-08-11T08:52:40.996Z,69.30
2018-08-11T08:55:08.516Z,71.60
2018-08-11T08:57:36.035Z,71.30
2018-08-11T09:00:04.207Z,69.60
2018-08-11T09:02:32.183Z,69.30
2018-08-11T09:04:59.765Z,67.90
2018-08-11T09:07:27.295Z,70.40
2018-08-11T09:09:54.821Z,68.70
2018-08-11T09:12:22.348Z,68.40
2018-08-11T09:14:50.752Z,68.90
2018-08-11T09:17:18.820Z,70.30
2018-08-11T09:19:46.324Z,68.90
2018-08-11T09:22:13.843Z,68.20
2018-08-11T09:24:41.390Z,62.50
2018-08-11T09:27:09.492Z,67.30
2018-08-11T09:29:37.020Z,62.70
2018-08-11T09:32:04.614Z,61.80
2018-08-11T09:34:32.164Z,62.00
2018-08-11T09:37:00.385Z,59.90
2018-08-11T09:39:27.915Z,59.60
2018-08-11T09:41:55.427Z,59.00
2018-08-11T09:44:22.990Z,59.10
2018-08-11T09:46:50.588Z,57.40
2018-08-11T09:49:18.190Z,57.00
2018-08-11T09:51:46.382Z,56.80
2018-08-11T09:54:15.031Z,57.40
2018-08-11T09:56:43.191Z,58.50
2018-08-11T09:59:10.710Z,58.40
2018-08-11T10:01:43.574Z,60.20
2018-08-11T10:04:12.043Z,59.70
2018-08-11T10:06:39.567Z,59.10
2018-08-11T10:09:10.342Z,58.00
2018-08-11T10:11:37.870Z,57.80
2018-08-11T10:14:05.855Z,58.70
2018-08-11T10:16:35.012Z,57.90
2018-08-11T10:19:02.525Z,57.60
2018-08-11T10:21:30.115Z,57.40
2018-08-11T10:23:58.417Z,57.10
2018-08-11T10:26:26.029Z,57.20
2018-08-11T10:28:53.601Z,56.10
2018-08-11T10:31:21.678Z,57.70
2018-08-11T10:33:49.182Z,57.50
2018-08-11T10:36:17.466Z,55.60
2018-08-11T10:38:44.982Z,54.00
2018-08-11T10:41:12.534Z,54.20
2018-08-11T10:43:40.404Z,52.00
2018-08-11T10:46:07.909Z,52.00
2018-08-11T10:48:35.451Z,50.20
2018-08-11T10:51:03.387Z,53.30
2018-08-11T10:53:31.258Z,50.90
2018-08-11T10:55:58.835Z,50.00
2018-08-11T10:58:26.342Z,50.70
2018-08-11T11:00:53.888Z,49.40
2018-08-11T11:03:21.444Z,49.80
2018-08-11T11:05:49.019Z,49.00
2018-08-11T11:08:16.609Z,49.40
2018-08-11T11:10:44.137Z,49.20
2018-08-11T11:13:11.645Z,48.90
2018-08-11T11:15:40.033Z,47.30
2018-08-11T11:18:08.204Z,47.20
2018-08-11T11:20:35.710Z,47.10
2018-08-11T11:23:04.364Z,47.70
2018-08-11T11:25:31.888Z,45.80
2018-08-11T11:27:59.407Z,46.10
2018-08-11T11:30:26.956Z,47.80
2018-08-11T11:32:55.139Z,48.80
2018-08-11T11:35:22.685Z,48.00
2018-08-11T11:37:50.567Z,47.60
2018-08-11T11:40:18.097Z,47.60
2018-08-11T11:42:45.631Z,48.60
2018-08-11T11:45:13.171Z,46.90
2018-08-11T11:47:40.663Z,44.20
2018-08-11T11:50:08.279Z,45.40
2018-08-11T11:52:36.259Z,46.20
2018-08-11T11:55:04.331Z,44.70
2018-08-11T11:57:31.829Z,45.40
2018-08-11T11:59:59.332Z,44.00
2018-08-11T12:02:26.942Z,43.00
2018-08-11T12:04:54.437Z,44.10
2018-08-11T12:07:22.091Z,45.20
2018-08-11T12:09:49.644Z,45.20
2018-08-11T12:12:17.154Z,43.10
2018-08-11T12:14:45.966Z,44.70
2018-08-11T12:17:14.053Z,44.70
2018-08-11T12:19:41.963Z,44.50
2018-08-11T12:22:10.070Z,45.00
2018-08-11T12:24:37.625Z,45.10
2018-08-11T12:27:05.166Z,44.60
2018-08-11T12:29:32.674Z,45.40
2018-08-11T12:32:02.171Z,43.10
2018-08-11T12:34:30.078Z,42.70
2018-08-11T12:36:57.592Z,43.30
2018-08-11T12:39:25.124Z,43.80
2018-08-11T12:41:52.752Z,43.00
2018-08-11T12:44:20.238Z,44.40
2018-08-11T12:46:47.842Z,44.00
2018-08-11T12:49:15.389Z,41.90
2018-08-11T12:51:43.262Z,42.20
2018-08-11T12:54:11.403Z,43.00
2018-08-11T12:56:38.911Z,44.00
2018-08-11T12:59:06.503Z,44.20
2018-08-11T13:01:34.058Z,43.00
2018-08-11T13:04:01.564Z,44.00
2018-08-11T13:06:29.144Z,43.80
2018-08-11T13:08:56.694Z,44.10
2018-08-11T13:11:24.839Z,43.40
2018-08-11T13:13:52.339Z,43.00
2018-08-11T13:16:20.713Z,43.00
2018-08-11T13:18:48.729Z,42.90
2018-08-11T13:21:16.239Z,42.90
2018-08-11T13:23:44.467Z,41.90
2018-08-11T13:26:12.004Z,41.40
2018-08-11T13:28:39.971Z,41.40
2018-08-11T13:31:07.558Z,43.40
2018-08-11T13:33:35.062Z,41.60
2018-08-11T13:36:02.605Z,41.90
2018-08-11T13:38:30.121Z,41.20
2018-08-11T13:40:57.695Z,41.80
2018-08-11T13:43:25.206Z,41.60
2018-08-11T13:45:52.708Z,42.70
2018-08-11T13:48:20.302Z,42.70
2018-08-11T13:50:48.427Z,42.50
2018-08-11T13:53:16.944Z,42.80
2018-08-11T13:55:45.115Z,42.50
2018-08-11T13:58:12.622Z,41.70
2018-08-11T14:00:40.146Z,42.20
2018-08-11T14:03:07.688Z,42.40
2018-08-11T14:05:35.291Z,41.80
2018-08-11T14:08:03.661Z,42.00
2018-08-11T14:10:31.176Z,42.50
2018-08-11T14:12:58.723Z,43.30
2018-08-11T14:15:26.846Z,43.70
2018-08-11T14:17:55.037Z,44.00
2018-08-11T14:20:22.670Z,43.80
2018-08-11T14:22:50.159Z,44.50
2018-08-11T14:25:18.553Z,43.20
2018-08-11T14:27:46.068Z,42.60
2018-08-11T14:30:13.589Z,44.30
2018-08-11T14:32:41.181Z,45.10
2018-08-11T14:35:08.747Z,45.30
2018-08-11T14:37:36.397Z,45.20
2018-08-11T14:40:06.837Z,45.70
2018-08-11T14:42:34.355Z,45.60
2018-08-11T14:45:01.951Z,45.90
2018-08-11T14:47:29.498Z,46.20
2018-08-11T14:49:57.023Z,46.10
2018-08-11T14:52:24.935Z,45.80
2018-08-11T14:54:53.155Z,45.60
2018-08-11T14:57:20.718Z,46.70
2018-08-11T14:59:48.255Z,45.10
2018-08-11T15:02:15.863Z,45.50
2018-08-11T15:04:43.781Z,45.10
2018-08-11T15:07:11.295Z,44.50
2018-08-11T15:09:38.815Z,44.20
2018-08-11T15:12:06.692Z,45.30
2018-08-11T15:14:34.847Z,45.70
2018-08-11T15:17:02.783Z,45.90
2018-08-11T15:19:30.285Z,45.80
2018-08-11T15:21:57.779Z,45.40
2018-08-11T15:24:25.725Z,45.90
2018-08-11T15:26:53.203Z,45.40
2018-08-11T15:29:20.724Z,45.90
2018-08-11T15:31:48.255Z,47.10
2018-08-11T15:34:15.774Z,47.80
2018-08-11T15:36:43.365Z,47.80
2018-08-11T15:39:12.511Z,47.90
2018-08-11T15:41:40.061Z,48.40
2018-08-11T15:44:07.599Z,48.40
2018-08-11T15:46:35.622Z,48.00
2018-08-11T15:49:03.301Z,48.10
2018-08-11T15:51:31.172Z,47.90
2018-08-11T15:53:59.019Z,48.30
2018-08-11T15:56:26.527Z,48.60
2018-08-11T15:58:54.023Z,46.70
2018-08-11T16:01:21.567Z,45.20
2018-08-11T16:03:49.062Z,45.00
2018-08-11T16:06:16.643Z,44.50
2018-08-11T16:08:44.175Z,45.00
2018-08-11T16:11:12.730Z,44.70
2018-08-11T16:13:40.272Z,45.00
2018-08-11T16:16:08.358Z,44.70
2018-08-11T16:18:36.638Z,45.50
2018-08-11T16:21:05.012Z,46.20
2018-08-11T16:23:32.558Z,47.70
2018-08-11T16:26:00.105Z,48.10
2018-08-11T16:28:27.995Z,48.50
2018-08-11T16:30:55.495Z,49.00
2018-08-11T16:33:23.084Z,49.10
2018-08-11T16:35:50.598Z,49.20
2018-08-11T16:38:18.591Z,49.80
2018-08-11T16:40:46.769Z,50.40
2018-08-11T16:43:14.277Z,50.60
2018-08-11T16:45:41.864Z,50.70
2018-08-11T16:48:09.391Z,50.70
2018-08-11T16:50:36.926Z,50.80
2018-08-11T16:53:05.509Z,50.90
2018-08-11T16:55:33.027Z,50.90
2018-08-11T16:58:00.591Z,51.40
2018-08-11T17:00:28.119Z,51.40
2018-08-11T17:02:55.708Z,51.40
2018-08-11T17:05:23.356Z,51.70
2018-08-11T17:07:51.613Z,51.80
2018-08-11T17:10:19.175Z,52.20
2018-08-11T17:12:46.714Z,52.40
2018-08-11T17:15:14.643Z,52.40
2018-08-11T17:17:42.494Z,52.70
2018-08-11T17:20:10.479Z,52.90
2018-08-11T17:22:37.987Z,53.20
2018-08-11T17:25:05.542Z,53.10
2018-08-11T17:27:33.526Z,53.10
2018-08-11T17:30:01.034Z,53.10
2018-08-11T17:32:28.656Z,53.40
2018-08-11T17:34:56.167Z,53.40
2018-08-11T17:37:24.336Z,53.20
2018-08-11T17:39:51.854Z,54.30
2018-08-11T17:42:19.387Z,54.40
2018-08-11T17:44:46.939Z,55.10
2018-08-11T17:47:14.455Z,54.70
2018-08-11T17:49:42.062Z,54.50
2018-08-11T17:52:09.955Z,55.90
2018-08-11T17:54:38.123Z,55.70
2018-08-11T17:57:05.675Z,56.70
2018-08-11T17:59:33.195Z,57.20
2018-08-11T18:02:00.724Z,58.70
2018-08-11T18:04:28.231Z,58.50
2018-08-11T18:06:56.213Z,58.40
2018-08-11T18:09:23.745Z,58.80
2018-08-11T18:11:51.247Z,58.80
2018-08-11T18:14:19.359Z,58.90
2018-08-11T18:16:47.235Z,59.00
2018-08-11T18:19:14.742Z,60.90
2018-08-11T18:21:42.257Z,63.50
2018-08-11T18:24:09.815Z,65.70
2018-08-11T18:26:37.323Z,62.50
2018-08-11T18:29:05.064Z,61.40
2018-08-11T18:31:32.967Z,62.20
2018-08-11T18:34:01.478Z,62.20
2018-08-11T18:36:28.975Z,61.80
2018-08-11T18:38:56.500Z,61.40
2018-08-11T18:41:24.014Z,61.60
2018-08-11T18:43:51.563Z,61.90
2018-08-11T18:46:19.135Z,62.10
2018-08-11T18:48:46.686Z,62.00
2018-08-11T18:51:15.001Z,62.00
2018-08-11T18:53:43.141Z,62.60
2018-08-11T18:56:10.655Z,63.00
2018-08-11T18:58:38.191Z,62.80
2018-08-11T19:01:05.868Z,65.60
2018-08-11T19:03:33.713Z,64.50
2018-08-11T19:06:01.243Z,65.40
2018-08-11T19:08:28.759Z,65.30
2018-08-11T19:10:56.284Z,72.10
2018-08-11T19:13:24.754Z,69.40
2018-08-11T19:15:52.874Z,67.60
2018-08-11T19:18:20.782Z,67.60
2018-08-11T19:20:48.352Z,67.70
2018-08-11T19:23:16.446Z,67.70
2018-08-11T19:25:44.007Z,68.20
2018-08-11T19:28:11.532Z,69.90
2018-08-11T19:30:39.691Z,71.20
2018-08-11T19:33:07.227Z,70.70
2018-08-11T19:35:34.830Z,70.10
2018-08-11T19:38:02.478Z,69.30
2018-08-11T19:40:30.062Z,69.70
2018-08-11T19:42:57.614Z,70.30
2018-08-11T19:45:25.204Z,69.10
2018-08-11T19:47:52.790Z,69.30
2018-08-11T19:50:20.329Z,69.20
2018-08-11T19:52:48.258Z,71.80
2018-08-11T19:55:16.538Z,72.30
2018-08-11T19:57:44.081Z,70.80
2018-08-11T20:00:13.595Z,70.30
2018-08-11T20:02:41.606Z,72.00
2018-08-11T20:05:10.003Z,73.30
2018-08-11T20:07:38.107Z,73.40
2018-08-11T20:10:06.353Z,74.30
2018-08-11T20:12:34.520Z,72.70
2018-08-11T20:15:02.790Z,72.20
2018-08-11T20:17:30.754Z,73.20
2018-08-11T20:19:58.838Z,72.10
2018-08-11T20:22:26.390Z,72.30
2018-08-11T20:24:53.926Z,73.00
2018-08-11T20:27:21.506Z,73.00
2018-08-11T20:29:49.017Z,73.70
2018-08-11T20:32:16.667Z,77.10
2018-08-11T20:34:44.219Z,76.90
2018-08-11T20:37:12.553Z,77.50
2018-08-11T20:39:40.428Z,76.20
2018-08-11T20:42:08.314Z,76.70
2018-08-11T20:44:36.280Z,75.30
2018-08-11T20:47:03.827Z,76.50
2018-08-11T20:49:31.511Z,80.00
2018-08-11T20:51:59.569Z,78.80
2018-08-11T20:54:27.806Z,77.60
2018-08-11T20:56:55.691Z,76.90
2018-08-11T20:59:23.838Z,76.70
2018-08-11T21:01:51.897Z,78.10
2018-08-11T21:04:19.423Z,77.10
2018-08-11T21:06:46.966Z,77.50
2018-08-11T21:09:15.021Z,77.70
2018-08-11T21:11:42.567Z,78.50
2018-08-11T21:14:10.977Z,77.80
2018-08-11T21:16:39.251Z,77.70
2018-08-11T21:19:07.381Z,78.60
2018-08-11T21:21:35.026Z,79.00
2018-08-11T21:24:02.833Z,78.40
2018-08-11T21:26:30.353Z,79.00
2018-08-11T21:28:58.126Z,78.70
2018-08-11T21:31:25.691Z,85.50
2018-08-11T21:33:53.926Z,82.50
2018-08-11T21:36:21.752Z,82.00
2018-08-11T21:38:49.350Z,82.00
2018-08-11T21:41:17.334Z,81.90
2018-08-11T21:43:45.547Z,86.20
2018-08-11T21:46:13.137Z,83.20
2018-08-11T21:48:40.666Z,83.40
2018-08-11T21:51:08.502Z,84.10
2018-08-11T21:53:36.598Z,84.60
2018-08-11T21:56:04.563Z,83.90
2018-08-11T21:58:32.099Z,83.10
2018-08-11T22:01:12.406Z,82.50
2018-08-11T22:03:41.382Z,83.20
2018-08-11T22:06:09.780Z,83.10
2018-08-11T22:08:37.596Z,83.40
2018-08-11T22:11:05.346Z,83.90
2018-08-11T22:13:32.953Z,84.50
2018-08-11T22:16:02.379Z,85.60
2018-08-11T22:18:30.990Z,87.10
2018-08-11T22:20:59.070Z,86.80
2018-08-11T22:23:26.755Z,84.90
2018-08-11T22:25:54.442Z,85.10
2018-08-11T22:28:22.019Z,83.50
2018-08-11T22:30:49.780Z,83.20
2018-08-11T22:33:17.398Z,84.40
2018-08-11T22:35:45.058Z,83.80
2018-08-11T22:38:12.950Z,83.20
2018-08-11T22:40:40.617Z,87.90
2018-08-11T22:43:08.585Z,88.50
2018-08-11T22:45:36.134Z,89.40
2018-08-11T22:48:04.131Z,90.30
2018-08-11T22:50:31.662Z,90.00
2018-08-11T22:52:59.895Z,90.30
2018-08-11T22:55:27.922Z,91.60
2018-08-11T22:57:55.454Z,88.10
2018-08-11T23:00:23.897Z,89.20
2018-08-11T23:02:51.491Z,86.20
2018-08-11T23:05:20.651Z,88.30
2018-08-11T23:07:48.260Z,87.60
2018-08-11T23:10:16.633Z,89.30
2018-08-11T23:12:45.153Z,87.60
2018-08-11T23:15:16.659Z,87.30
2018-08-11T23:17:46.334Z,86.80
2018-08-11T23:20:14.451Z,86.80
2018-08-11T23:22:42.776Z,88.30
2018-08-11T23:25:10.959Z,90.60
2018-08-11T23:27:38.542Z,88.00
2018-08-11T23:30:09.878Z,88.00
2018-08-11T23:32:37.716Z,88.50
2018-08-11T23:35:05.294Z,87.00
2018-08-11T23:37:32.873Z,88.90
2018-08-11T23:40:00.494Z,87.80
2018-08-11T23:42:28.302Z,87.20
2018-08-11T23:44:55.852Z,89.00
2018-08-11T23:47:23.486Z,87.60
2018-08-11T23:49:51.070Z,87.60
2018-08-11T23:52:20.542Z,86.80
2018-08-11T23:54:48.913Z,87.70
2018-08-11T23:57:16.519Z,88.70
2018-08-11T23:59:44.012Z,89.20
